Time;durP1;ratioP1;P1;durP2;ratioP2;P2;SDS_P1;SDS_P2;PMS_P1;PMS_P2;Temp;Humidity;BMP_temperature;BMP_pressure;BME280_temperature;BME280_humidity;BME280_pressure;Samples;Min_cycle;Max_cycle;Signal;HPM_P1;HPM_P2
2023/05/10 00:01:37;;;;;;;36.50;15.68;;;13.80;99.90;;;;;;5094668;28;20031;-40
2023/05/10 00:04:03;;;;;;;32.90;15.38;;;13.80;99.90;;;;;;5093223;28;20484;-40
2023/05/10 00:06:30;;;;;;;35.85;15.85;;;13.80;99.90;;;;;;5092653;28;20540;-41
2023/05/10 00:08:55;;;;;;;31.10;15.45;;;13.80;99.90;;;;;;5109442;28;20499;-40
2023/05/10 00:11:21;;;;;;;36.72;18.35;;;13.80;99.90;;;;;;5113596;28;20011;-34
2023/05/10 00:13:47;;;;;;;41.10;17.83;;;13.80;99.90;;;;;;5097917;28;20028;-36
2023/05/10 00:16:13;;;;;;;43.50;18.05;;;13.70;99.90;;;;;;5102375;28;20472;-41
2023/05/10 00:18:39;;;;;;;37.97;16.23;;;13.70;99.90;;;;;;5112377;28;20524;-38
2023/05/10 00:21:05;;;;;;;37.88;15.07;;;13.70;99.90;;;;;;5097321;27;20087;-36
2023/05/10 00:23:31;;;;;;;35.97;16.27;;;13.70;99.90;;;;;;5103450;28;20024;-38
2023/05/10 00:25:57;;;;;;;39.92;17.55;;;13.70;99.90;;;;;;5093133;28;20024;-35
2023/05/10 00:28:22;;;;;;;46.63;17.25;;;13.70;99.90;;;;;;5093004;28;20389;-37
2023/05/10 00:30:48;;;;;;;39.40;16.73;;;13.80;99.90;;;;;;5092084;28;20024;-37
2023/05/10 00:33:14;;;;;;;43.65;16.33;;;13.70;99.90;;;;;;5111791;28;20031;-39
2023/05/10 00:35:40;;;;;;;43.75;17.40;;;13.70;99.90;;;;;;5113555;28;20392;-40
2023/05/10 00:38:06;;;;;;;42.28;16.80;;;13.70;99.90;;;;;;5109714;27;20472;-39
2023/05/10 00:40:32;;;;;;;37.97;14.88;;;13.70;99.90;;;;;;5113429;28;20513;-37
2023/05/10 00:42:59;;;;;;;41.72;16.15;;;13.70;99.90;;;;;;5112226;28;20114;-35
2023/05/10 00:45:24;;;;;;;49.80;17.73;;;13.70;99.90;;;;;;5113162;28;20020;-30
2023/05/10 00:47:54;;;;;;;45.83;17.40;;;13.70;99.90;;;;;;5113042;28;20031;-35
2023/05/10 00:50:21;;;;;;;50.50;18.98;;;13.70;99.90;;;;;;5113471;28;20027;-32
2023/05/10 00:52:47;;;;;;;45.65;16.92;;;13.80;99.90;;;;;;5101869;28;20035;-37
2023/05/10 00:55:13;;;;;;;50.72;17.45;;;13.70;99.90;;;;;;5113173;28;20124;-36
2023/05/10 00:57:39;;;;;;;54.05;18.92;;;13.70;99.90;;;;;;5103109;28;20369;-35
2023/05/10 01:00:05;;;;;;;48.53;18.60;;;13.80;99.90;;;;;;5113350;28;20498;-31
2023/05/10 01:02:32;;;;;;;45.75;16.90;;;13.80;99.90;;;;;;5112565;28;20034;-33
2023/05/10 01:04:59;;;;;;;58.85;18.40;;;13.80;99.90;;;;;;5112351;28;20020;-40
2023/05/10 01:07:25;;;;;;;44.05;16.17;;;13.70;99.90;;;;;;5100966;28;20472;-40
2023/05/10 01:09:51;;;;;;;53.05;17.30;;;13.70;99.90;;;;;;5112990;28;20020;-40
2023/05/10 01:12:16;;;;;;;48.40;17.70;;;13.70;99.90;;;;;;5092949;28;20039;-35
2023/05/10 01:14:42;;;;;;;55.13;17.63;;;13.80;99.90;;;;;;5091796;28;20028;-39
2023/05/10 01:17:10;;;;;;;47.17;17.52;;;13.70;99.90;;;;;;5092409;28;20480;-38
2023/05/10 01:19:37;;;;;;;;;;;13.70;99.90;;;;;;5097969;28;20019;-37
2023/05/10 01:22:40;;;;;;;45.40;16.25;;;13.70;99.90;;;;;;5102194;28;20368;-36
2023/05/10 01:25:28;;;;;;;43.25;16.25;;;13.70;99.90;;;;;;5092487;28;20024;-36
2023/05/10 01:28:05;;;;;;;48.72;18.08;;;13.70;99.90;;;;;;5104307;28;20032;-34
2023/05/10 01:30:44;;;;;;;45.42;16.45;;;13.70;99.90;;;;;;5111693;28;20396;-34
2023/05/10 01:33:24;;;;;;;42.08;16.33;;;13.60;99.90;;;;;;5113109;28;20035;-33
2023/05/10 01:36:06;;;;;;;55.88;17.65;;;13.60;99.90;;;;;;5110908;28;20024;-30
2023/05/10 01:38:50;;;;;;;54.80;18.10;;;13.60;99.90;;;;;;5091910;28;20039;-35
2023/05/10 01:41:32;;;;;;;55.17;20.50;;;13.50;99.90;;;;;;5094184;28;20070;-36
2023/05/10 01:44:27;;;;;;;48.78;16.02;;;13.50;99.90;;;;;;5096029;28;20026;-33
2023/05/10 01:47:06;;;;;;;61.15;19.05;;;13.40;99.90;;;;;;5102618;28;20069;-35
2023/05/10 01:49:41;;;;;;;58.00;16.73;;;13.40;99.90;;;;;;5116454;28;20048;-37
2023/05/10 01:52:12;;;;;;;59.03;18.67;;;13.40;99.90;;;;;;5105955;28;20036;-38
2023/05/10 01:54:49;;;;;;;66.95;19.15;;;13.30;99.90;;;;;;5112713;28;20030;-39
2023/05/10 01:57:16;;;;;;;62.95;18.75;;;13.30;99.90;;;;;;5115196;27;20035;-40
2023/05/10 01:59:45;;;;;;;60.90;18.08;;;13.30;99.90;;;;;;5116185;28;20039;-36
2023/05/10 02:02:12;;;;;;;69.15;20.42;;;13.30;99.90;;;;;;5116421;28;20498;-36
2023/05/10 02:04:40;;;;;;;69.18;20.98;;;13.20;99.90;;;;;;5115994;28;20122;-38
2023/05/10 02:07:07;;;;;;;66.75;18.45;;;13.20;99.90;;;;;;5108812;28;20024;-32
2023/05/10 02:09:34;;;;;;;70.05;19.48;;;13.20;99.90;;;;;;5103908;28;20073;-41
2023/05/10 02:12:03;;;;;;;61.88;19.42;;;13.20;99.90;;;;;;5095535;28;20035;-38
2023/05/10 02:14:33;;;;;;;65.32;18.85;;;13.10;99.90;;;;;;5095488;28;20045;-34
2023/05/10 02:17:01;;;;;;;72.85;19.75;;;13.10;99.90;;;;;;5094669;28;20031;-38
2023/05/10 02:19:28;;;;;;;66.18;18.77;;;13.10;99.90;;;;;;5099064;28;20032;-35
2023/05/10 02:21:57;;;;;;;67.55;19.67;;;13.10;99.90;;;;;;5108893;28;20480;-39
2023/05/10 02:24:24;;;;;;;78.97;19.17;;;13.10;99.90;;;;;;5115750;28;20028;-37
2023/05/10 02:26:53;;;;;;;71.75;21.45;;;13.10;99.90;;;;;;5105132;28;20024;-35
2023/05/10 02:29:20;;;;;;;61.58;18.73;;;13.20;99.90;;;;;;5095269;28;20102;-37
2023/05/10 02:31:46;;;;;;;68.50;21.30;;;13.20;99.90;;;;;;5105884;28;20476;-41
2023/05/10 02:34:13;;;;;;;66.65;20.58;;;13.30;99.90;;;;;;5115434;27;20030;-39
2023/05/10 02:36:41;;;;;;;63.63;20.50;;;13.20;99.90;;;;;;5094472;28;20447;-39
2023/05/10 02:39:09;;;;;;;62.28;20.70;;;13.30;99.90;;;;;;5076734;28;20075;-39
2023/05/10 02:41:36;;;;;;;65.20;20.88;;;13.30;99.90;;;;;;5093767;28;20062;-37
2023/05/10 02:44:05;;;;;;;58.22;20.30;;;13.30;99.90;;;;;;5094857;28;20016;-37
2023/05/10 02:46:31;;;;;;;61.35;19.92;;;13.30;99.90;;;;;;5094497;28;20119;-40
2023/05/10 02:48:56;;;;;;;74.07;21.58;;;13.30;99.90;;;;;;5094813;28;20063;-34
2023/05/10 02:51:26;;;;;;;62.33;22.90;;;13.30;99.90;;;;;;5095635;28;20023;-36
2023/05/10 02:53:54;;;;;;;66.22;21.13;;;13.30;99.90;;;;;;5093754;28;20020;-37
2023/05/10 02:56:25;;;;;;;57.70;19.45;;;13.20;99.90;;;;;;5091784;28;20468;-37
2023/05/10 02:58:52;;;;;;;59.22;21.85;;;13.20;99.90;;;;;;5094546;28;20099;-36
2023/05/10 03:01:17;;;;;;;60.13;21.77;;;13.20;99.90;;;;;;5101648;28;20020;-38
2023/05/10 03:03:43;;;;;;;66.93;19.05;;;13.20;99.90;;;;;;5114656;28;20407;-37
2023/05/10 03:06:09;;;;;;;74.55;23.40;;;13.20;99.90;;;;;;5110603;28;20092;-35
2023/05/10 03:08:35;;;;;;;78.82;24.38;;;13.20;99.90;;;;;;5115310;28;20030;-38
2023/05/10 03:11:15;;;;;;;72.82;22.55;;;13.20;99.90;;;;;;5111299;28;20480;-41
2023/05/10 03:13:48;;;;;;;63.53;20.90;;;13.20;99.90;;;;;;5094352;28;20028;-36
2023/05/10 03:16:27;;;;;;;68.70;22.52;;;13.20;99.90;;;;;;5094723;28;20020;-35
2023/05/10 03:19:13;;;;;;;91.85;22.23;;;13.20;99.90;;;;;;5114410;28;20441;-36
2023/05/10 03:21:43;;;;;;;77.15;23.58;;;13.30;99.90;;;;;;5097559;28;20544;-32
2023/05/10 03:24:12;;;;;;;63.90;21.52;;;13.30;99.90;;;;;;5093271;28;20020;-38
2023/05/10 03:26:39;;;;;;;74.30;20.52;;;13.30;99.90;;;;;;5094160;28;20492;-36
2023/05/10 03:29:06;;;;;;;73.40;20.30;;;13.30;99.90;;;;;;5094072;28;20028;-38
2023/05/10 03:31:32;;;;;;;77.68;23.08;;;13.30;99.90;;;;;;5097023;28;20095;-32
2023/05/10 03:33:58;;;;;;;77.97;22.33;;;13.30;99.90;;;;;;5093968;28;20524;-34
2023/05/10 03:36:23;;;;;;;79.90;21.98;;;13.30;99.90;;;;;;5100411;28;20044;-32
2023/05/10 03:38:49;;;;;;;78.32;21.90;;;13.30;99.90;;;;;;5099164;28;20024;-37
2023/05/10 03:41:15;;;;;;;72.68;21.80;;;13.30;99.90;;;;;;5114222;28;20023;-34
2023/05/10 03:43:41;;;;;;;78.35;22.67;;;13.30;99.90;;;;;;5114119;28;20077;-34
2023/05/10 03:46:06;;;;;;;77.03;21.17;;;13.30;99.90;;;;;;5114326;28;20429;-31
2023/05/10 03:48:33;;;;;;;63.25;20.80;;;13.30;99.90;;;;;;5097268;28;20133;-31
2023/05/10 03:50:58;;;;;;;73.40;22.30;;;13.30;99.90;;;;;;5102611;28;20387;-33
2023/05/10 03:53:24;;;;;;;66.03;21.52;;;13.30;99.90;;;;;;5112123;28;20024;-38
2023/05/10 03:55:50;;;;;;;76.93;22.75;;;13.30;99.90;;;;;;5101904;28;20385;-35
2023/05/10 03:58:16;;;;;;;84.95;24.65;;;13.20;99.90;;;;;;5093089;28;20032;-34
2023/05/10 04:00:43;;;;;;;74.50;23.08;;;13.20;99.90;;;;;;5093454;28;20043;-35
2023/05/10 04:03:12;;;;;;;74.70;22.67;;;13.20;99.90;;;;;;5093259;28;20028;-35
2023/05/10 04:05:38;;;;;;;68.80;21.15;;;13.30;99.90;;;;;;5092576;28;20035;-36
2023/05/10 04:08:05;;;;;;;70.38;22.83;;;13.30;99.90;;;;;;5092911;28;20027;-36
2023/05/10 04:10:30;;;;;;;69.05;22.85;;;13.30;99.90;;;;;;5093343;28;20031;-35
2023/05/10 04:12:56;;;;;;;75.47;24.45;;;13.30;99.90;;;;;;5093321;28;20044;-32
2023/05/10 04:15:22;;;;;;;75.78;22.63;;;13.30;99.90;;;;;;5093438;28;20028;-36
2023/05/10 04:17:48;;;;;;;78.68;24.92;;;13.30;99.90;;;;;;5097539;28;20024;-31
2023/05/10 04:20:13;;;;;;;64.07;22.40;;;13.30;99.90;;;;;;5093089;28;20036;-33
2023/05/10 04:22:39;;;;;;;72.05;22.98;;;13.30;99.90;;;;;;5111031;28;20036;-36
2023/05/10 04:25:05;;;;;;;69.30;22.65;;;13.30;99.90;;;;;;5112287;28;20417;-31
2023/05/10 04:27:31;;;;;;;79.00;24.77;;;13.30;99.90;;;;;;5110617;28;20102;-40
2023/05/10 04:29:57;;;;;;;63.95;24.17;;;13.40;99.90;;;;;;5112597;28;20069;-37
2023/05/10 04:32:23;;;;;;;79.05;25.60;;;13.40;99.90;;;;;;5113643;28;20028;-36
2023/05/10 04:34:50;;;;;;;63.30;23.80;;;13.40;99.90;;;;;;5113398;28;20161;-38
2023/05/10 04:37:16;;;;;;;68.35;24.77;;;13.40;99.90;;;;;;5109361;28;20020;-38
2023/05/10 04:39:41;;;;;;;69.32;22.73;;;13.30;99.90;;;;;;5113241;28;20032;-35
2023/05/10 04:42:07;;;;;;;66.85;23.90;;;13.40;99.90;;;;;;5113245;28;20392;-38
2023/05/10 04:44:33;;;;;;;68.55;23.88;;;13.30;99.90;;;;;;5111950;28;20032;-37
2023/05/10 04:46:59;;;;;;;66.40;23.52;;;13.40;99.90;;;;;;5113487;28;20023;-34
2023/05/10 04:49:24;;;;;;;62.38;22.73;;;13.30;99.90;;;;;;5107434;28;20070;-35
2023/05/10 04:51:50;;;;;;;67.57;23.75;;;13.30;99.90;;;;;;5100174;28;20039;-33
2023/05/10 04:54:16;;;;;;;69.20;23.88;;;13.30;99.90;;;;;;5113441;28;20107;-38
2023/05/10 04:56:41;;;;;;;59.88;23.83;;;13.20;99.90;;;;;;5093839;28;20024;-41
2023/05/10 04:59:07;;;;;;;65.05;20.30;;;13.20;99.90;;;;;;5092950;28;20077;-40
2023/05/10 05:01:33;;;;;;;80.03;22.30;;;13.20;99.90;;;;;;5092747;28;20103;-33
2023/05/10 05:03:59;;;;;;;74.32;21.77;;;13.20;99.90;;;;;;5092151;28;20067;-35
2023/05/10 05:06:25;;;;;;;81.80;22.45;;;13.10;99.90;;;;;;5091698;28;20020;-33
2023/05/10 05:08:51;;;;;;;81.80;22.08;;;13.10;99.90;;;;;;5099024;28;20047;-34
2023/05/10 05:11:17;;;;;;;70.85;19.58;;;13.00;99.90;;;;;;5103320;28;22024;-36
2023/05/10 05:13:43;;;;;;;74.72;21.48;;;13.00;99.90;;;;;;5101717;28;20033;-35
2023/05/10 05:16:09;;;;;;;61.85;19.70;;;13.00;99.90;;;;;;5096811;28;20586;-38
2023/05/10 05:18:34;;;;;;;58.92;19.88;;;13.00;99.90;;;;;;5101211;28;20063;-36
2023/05/10 05:21:00;;;;;;;64.55;20.02;;;13.00;99.90;;;;;;5095981;28;20028;-38
2023/05/10 05:23:26;;;;;;;67.80;20.33;;;12.90;99.90;;;;;;5113920;28;20507;-38
2023/05/10 05:25:52;;;;;;;55.80;18.95;;;12.90;99.90;;;;;;5117125;28;20016;-36
2023/05/10 05:28:19;;;;;;;62.55;20.65;;;12.70;99.90;;;;;;5116809;28;20035;-35
2023/05/10 05:30:45;;;;;;;67.00;20.97;;;12.70;99.90;;;;;;5107179;28;20111;-36
2023/05/10 05:33:12;;;;;;;66.68;22.05;;;12.50;99.90;;;;;;5096210;28;20107;-37
2023/05/10 05:35:38;;;;;;;74.67;22.30;;;12.60;99.90;;;;;;5105846;28;20479;-33
2023/05/10 05:38:04;;;;;;;60.80;19.75;;;12.60;99.90;;;;;;5113401;28;20034;-35
2023/05/10 05:40:30;;;;;;;56.10;18.30;;;12.50;99.90;;;;;;5096085;28;20032;-37
2023/05/10 05:42:55;;;;;;;58.88;17.50;;;12.50;99.90;;;;;;5107055;28;20048;-36
2023/05/10 05:45:21;;;;;;;44.58;15.90;;;12.40;99.90;;;;;;5108685;28;20499;-37
2023/05/10 05:47:47;;;;;;;55.10;14.95;;;12.40;99.90;;;;;;5115522;28;20034;-34
2023/05/10 05:50:12;;;;;;;44.15;13.23;;;12.40;99.90;;;;;;5097028;27;20410;-39
2023/05/10 05:52:38;;;;;;;43.78;12.88;;;12.40;99.90;;;;;;5096361;28;20069;-33
2023/05/10 05:55:04;;;;;;;32.15;12.02;;;12.50;99.90;;;;;;5109028;28;20023;-36
2023/05/10 05:57:30;;;;;;;38.50;13.15;;;12.50;99.90;;;;;;5095825;28;20043;-36
2023/05/10 05:59:56;;;;;;;31.05;11.45;;;12.50;99.90;;;;;;5095767;28;20032;-38
2023/05/10 06:02:21;;;;;;;34.25;10.98;;;12.60;99.90;;;;;;5095641;28;20046;-31
2023/05/10 06:04:47;;;;;;;31.20;11.02;;;12.60;99.90;;;;;;5104431;27;20495;-38
2023/05/10 06:07:13;;;;;;;29.77;10.77;;;12.60;99.90;;;;;;5115114;28;20027;-37
2023/05/10 06:09:38;;;;;;;29.40;10.52;;;12.70;99.90;;;;;;5099103;28;20078;-37
2023/05/10 06:12:04;;;;;;;28.83;10.45;;;12.60;99.90;;;;;;5104408;28;20028;-37
2023/05/10 06:14:30;;;;;;;27.63;10.35;;;12.50;99.90;;;;;;5116201;28;20530;-40
2023/05/10 06:16:56;;;;;;;24.42;10.43;;;12.50;99.90;;;;;;5101119;28;20059;-39
2023/05/10 06:19:21;;;;;;;32.55;9.93;;;12.50;99.90;;;;;;5095350;28;20113;-39
2023/05/10 06:21:47;;;;;;;25.83;9.77;;;12.50;99.90;;;;;;5103810;28;20378;-39
2023/05/10 06:24:13;;;;;;;35.28;9.73;;;12.40;99.90;;;;;;5115785;28;20419;-38
2023/05/10 06:26:38;;;;;;;18.73;8.48;;;12.40;99.90;;;;;;5114426;28;20031;-38
2023/05/10 06:29:04;;;;;;;29.05;8.00;;;12.50;99.90;;;;;;5101224;28;20024;-36
2023/05/10 06:31:29;;;;;;;23.60;8.63;;;12.60;99.90;;;;;;5100614;28;20024;-41
2023/05/10 06:33:55;;;;;;;20.23;7.95;;;12.70;99.90;;;;;;5115713;28;20024;-37
2023/05/10 06:36:21;;;;;;;19.00;8.95;;;12.80;99.90;;;;;;5105318;28;20016;-38
2023/05/10 06:38:47;;;;;;;21.75;8.13;;;13.00;99.90;;;;;;5099984;28;20029;-35
2023/05/10 06:41:13;;;;;;;22.38;8.48;;;13.10;99.90;;;;;;5098126;28;20362;-36
2023/05/10 06:43:41;;;;;;;17.30;7.13;;;13.10;99.90;;;;;;5108051;28;20023;-38
2023/05/10 06:46:07;;;;;;;22.98;8.35;;;13.10;99.90;;;;;;5113728;28;20038;-40
2023/05/10 06:48:32;;;;;;;20.17;8.40;;;13.10;99.90;;;;;;5106623;28;20027;-39
2023/05/10 06:50:58;;;;;;;21.38;8.60;;;13.10;99.90;;;;;;5106309;28;20088;-38
2023/05/10 06:53:24;;;;;;;16.45;7.82;;;13.20;99.90;;;;;;5094717;28;20032;-39
2023/05/10 06:55:49;;;;;;;20.42;7.90;;;13.30;99.90;;;;;;5100741;28;20030;-40
2023/05/10 06:58:15;;;;;;;18.42;7.78;;;13.40;99.90;;;;;;5102205;27;20492;-36
2023/05/10 07:00:43;;;;;;;17.35;6.82;;;13.40;99.90;;;;;;5111967;28;20032;-37
2023/05/10 07:03:09;;;;;;;19.15;7.57;;;13.50;99.90;;;;;;5107271;27;20047;-35
2023/05/10 07:05:35;;;;;;;16.23;7.00;;;13.60;99.90;;;;;;5096473;28;20072;-36
2023/05/10 07:08:01;;;;;;;13.45;7.25;;;13.60;99.90;;;;;;5095721;28;20431;-39
2023/05/10 07:10:27;;;;;;;14.85;6.93;;;13.60;99.90;;;;;;5092989;28;20085;-35
2023/05/10 07:12:53;;;;;;;16.05;6.47;;;13.60;99.90;;;;;;5094476;28;20035;-36
2023/05/10 07:15:18;;;;;;;20.33;7.68;;;13.60;99.90;;;;;;5096391;28;20017;-40
2023/05/10 07:17:45;;;;;;;19.10;6.47;;;13.50;99.90;;;;;;5095284;28;20027;-38
2023/05/10 07:20:11;;;;;;;18.35;7.18;;;13.50;99.90;;;;;;5102262;28;20024;-37
2023/05/10 07:22:37;;;;;;;14.70;6.63;;;13.50;99.90;;;;;;5114937;28;20495;-40
2023/05/10 07:25:02;;;;;;;17.05;6.88;;;13.60;99.90;;;;;;5107656;28;20023;-35
2023/05/10 07:27:28;;;;;;;13.88;6.95;;;13.60;99.90;;;;;;5097558;28;20060;-37
2023/05/10 07:29:54;;;;;;;9.88;5.55;;;13.60;99.90;;;;;;5104015;28;20357;-39
2023/05/10 07:32:20;;;;;;;13.70;6.18;;;13.60;99.90;;;;;;5101904;28;20464;-34
2023/05/10 07:34:46;;;;;;;14.57;6.47;;;13.50;99.90;;;;;;5094249;28;20076;-40
2023/05/10 07:37:11;;;;;;;14.23;6.63;;;13.50;99.90;;;;;;5093838;28;20104;-40
2023/05/10 07:39:37;;;;;;;12.93;6.25;;;13.60;99.90;;;;;;5103783;28;20551;-41
2023/05/10 07:42:03;;;;;;;19.80;6.95;;;13.60;99.90;;;;;;5108790;27;20487;-41
2023/05/10 07:44:29;;;;;;;13.65;6.15;;;13.60;99.90;;;;;;5118441;27;20158;-39
2023/05/10 07:46:55;;;;;;;12.32;6.13;;;13.60;99.90;;;;;;5106614;28;20035;-38
2023/05/10 07:49:21;;;;;;;15.98;6.72;;;13.70;99.90;;;;;;5095717;28;20051;-37
2023/05/10 07:51:47;;;;;;;12.85;6.40;;;13.70;99.90;;;;;;5094358;28;20056;-40
2023/05/10 07:54:13;;;;;;;18.27;6.00;;;13.70;99.90;;;;;;5093866;28;20028;-40
2023/05/10 07:56:40;;;;;;;10.63;5.63;;;13.60;99.90;;;;;;5093267;28;20055;-44
2023/05/10 07:59:06;;;;;;;15.52;6.80;;;13.70;99.90;;;;;;5102687;28;20054;-36
2023/05/10 08:01:33;;;;;;;12.43;6.13;;;13.70;99.90;;;;;;5092015;28;20625;-39
2023/05/10 08:03:59;;;;;;;15.65;6.40;;;13.70;99.90;;;;;;5103285;28;20035;-39
2023/05/10 08:06:27;;;;;;;15.18;6.85;;;13.70;99.90;;;;;;5109751;28;20272;-40
2023/05/10 08:08:54;;;;;;;11.48;6.25;;;13.70;99.90;;;;;;5110631;28;20035;-39
2023/05/10 08:11:22;;;;;;;16.73;6.10;;;13.70;99.90;;;;;;5095092;27;20081;-39
2023/05/10 08:13:50;;;;;;;14.10;5.85;;;13.70;99.90;;;;;;5113625;28;20391;-41
2023/05/10 08:16:16;;;;;;;7.93;4.93;;;13.60;99.90;;;;;;5101075;27;20046;-42
2023/05/10 08:18:43;;;;;;;11.32;6.00;;;13.60;99.90;;;;;;5113824;28;20437;-40
2023/05/10 08:21:11;;;;;;;10.75;6.32;;;13.70;99.90;;;;;;5106087;28;20476;-40
2023/05/10 08:23:37;;;;;;;13.73;6.25;;;13.70;99.90;;;;;;5093040;28;20032;-40
2023/05/10 08:26:02;;;;;;;12.75;5.68;;;13.80;99.90;;;;;;5097814;28;20301;-39
2023/05/10 08:28:28;;;;;;;12.43;5.68;;;14.00;99.90;;;;;;5113120;28;20019;-40
2023/05/10 08:30:54;;;;;;;9.73;5.38;;;14.10;99.90;;;;;;5107048;28;20097;-40
2023/05/10 08:33:20;;;;;;;12.57;5.93;;;14.10;99.90;;;;;;5104757;28;20028;-40
2023/05/10 08:35:48;;;;;;;12.15;5.93;;;14.20;99.90;;;;;;5108825;28;20084;-38
2023/05/10 08:38:13;;;;;;;;;;;14.20;99.90;;;;;;5111875;28;20020;-39
2023/05/10 08:40:43;;;;;;;11.90;5.57;;;14.20;99.90;;;;;;5113403;28;20413;-39
2023/05/10 08:43:14;;;;;;;12.68;5.50;;;14.10;99.90;;;;;;5111705;28;20034;-40
2023/05/10 08:45:42;;;;;;;10.73;5.72;;;14.20;99.90;;;;;;5109765;28;20487;-37
2023/05/10 08:48:11;;;;;;;13.55;4.88;;;14.10;99.90;;;;;;5113477;28;20036;-41
2023/05/10 08:50:39;;;;;;;12.57;4.90;;;14.10;99.90;;;;;;5109234;28;20027;-41
2023/05/10 08:53:11;;;;;;;;;;;14.10;99.90;;;;;;5109171;28;20027;-39
2023/05/10 08:55:38;;;;;;;6.72;3.85;;;14.10;99.90;;;;;;5106392;28;20002;-41
2023/05/10 08:58:05;;;;;;;6.60;3.80;;;14.10;99.90;;;;;;5105561;28;20031;-39
2023/05/10 09:00:31;;;;;;;9.10;4.40;;;14.10;99.90;;;;;;5112609;28;20103;-41
2023/05/10 09:03:00;;;;;;;8.30;4.00;;;14.10;99.90;;;;;;5096901;28;20055;-40
2023/05/10 09:05:27;;;;;;;8.23;3.80;;;14.10;99.90;;;;;;5096720;28;20082;-41
2023/05/10 09:07:52;;;;;;;9.45;3.90;;;14.20;99.90;;;;;;5115701;28;20020;-38
2023/05/10 09:10:19;;;;;;;7.85;3.92;;;14.30;99.90;;;;;;5106150;28;20028;-36
2023/05/10 09:12:45;;;;;;;10.85;4.15;;;14.40;99.90;;;;;;5109617;28;20352;-42
2023/05/10 09:15:14;;;;;;;6.82;3.92;;;14.50;99.90;;;;;;5097009;28;20016;-40
2023/05/10 09:17:41;;;;;;;6.68;3.85;;;14.60;99.90;;;;;;5096172;28;20478;-38
2023/05/10 09:20:07;;;;;;;8.00;4.05;;;14.70;99.90;;;;;;5107764;28;20484;-39
2023/05/10 09:22:33;;;;;;;9.77;3.67;;;14.80;99.90;;;;;;5102861;28;20644;-41
2023/05/10 09:25:13;;;;;;;6.45;4.00;;;14.90;99.90;;;;;;5101704;28;20020;-39
2023/05/10 09:27:40;;;;;;;7.55;4.30;;;15.00;99.90;;;;;;5100100;28;20100;-40
2023/05/10 09:30:07;;;;;;;4.68;3.30;;;15.00;99.90;;;;;;5096865;28;20116;-41
2023/05/10 09:32:44;;;;;;;5.32;3.83;;;15.00;99.90;;;;;;5096403;28;20027;-39
2023/05/10 09:35:12;;;;;;;5.90;3.33;;;14.90;99.90;;;;;;5099024;28;20030;-39
2023/05/10 09:37:44;;;;;;;5.35;3.65;;;14.90;99.90;;;;;;5099837;28;20146;-39
2023/05/10 09:40:15;;;;;;;6.95;3.50;;;14.90;99.90;;;;;;5108843;28;20031;-40
2023/05/10 09:42:50;;;;;;;5.63;3.65;;;14.90;99.90;;;;;;5116492;28;20016;-39
2023/05/10 09:45:15;;;;;;;3.67;2.53;;;14.80;99.90;;;;;;5096435;28;20016;-41
2023/05/10 09:47:41;;;;;;;6.88;2.75;;;14.70;99.90;;;;;;5096079;28;20509;-40
2023/05/10 09:50:07;;;;;;;5.05;2.75;;;14.60;99.90;;;;;;5102738;28;20506;-40
2023/05/10 09:52:51;;;;;;;3.85;2.28;;;14.60;99.90;;;;;;5106655;28;20476;-42
2023/05/10 09:55:19;;;;;;;3.83;2.85;;;14.60;99.90;;;;;;5112605;28;20549;-41
2023/05/10 09:57:47;;;;;;;6.63;2.80;;;14.70;99.90;;;;;;5107971;28;20410;-40
2023/05/10 10:00:18;;;;;;;5.35;2.63;;;14.80;99.90;;;;;;5099104;28;20084;-41
2023/05/10 10:02:45;;;;;;;3.78;2.65;;;14.90;99.90;;;;;;5104051;27;20057;-42
2023/05/10 10:05:11;;;;;;;4.97;3.55;;;14.90;99.90;;;;;;5097420;28;20490;-44
2023/05/10 10:07:37;;;;;;;7.85;3.65;;;15.10;99.90;;;;;;5105534;28;20024;-38
2023/05/10 10:10:04;;;;;;;5.63;3.45;;;15.10;99.90;;;;;;5098499;28;20036;-39
2023/05/10 10:12:30;;;;;;;5.00;3.22;;;15.20;99.90;;;;;;5104301;28;20103;-40
2023/05/10 10:14:56;;;;;;;6.28;3.33;;;15.20;99.90;;;;;;5113895;28;20516;-38
2023/05/10 10:17:24;;;;;;;6.97;3.70;;;15.10;99.90;;;;;;5115847;28;20028;-38
2023/05/10 10:19:50;;;;;;;10.45;3.63;;;15.00;99.90;;;;;;5115715;28;20100;-40
2023/05/10 10:22:17;;;;;;;7.35;4.47;;;15.00;99.90;;;;;;5115764;28;20475;-41
2023/05/10 10:24:43;;;;;;;7.90;3.78;;;15.00;99.90;;;;;;5113058;28;20028;-41
2023/05/10 10:27:14;;;;;;;7.07;4.22;;;15.00;99.90;;;;;;5115705;28;20051;-38
2023/05/10 10:29:52;;;;;;;8.60;4.10;;;14.90;99.90;;;;;;5115640;28;20027;-39
2023/05/10 10:32:43;;;;;;;13.80;4.45;;;14.90;99.90;;;;;;5114055;28;20436;-35
2023/05/10 10:35:09;;;;;;;6.20;3.70;;;15.00;99.90;;;;;;5115505;28;20031;-37
2023/05/10 10:37:44;;;;;;;11.10;4.10;;;15.10;99.90;;;;;;5097307;28;20035;-40
2023/05/10 10:40:31;;;;;;;4.63;3.10;;;15.30;99.90;;;;;;5104928;28;20062;-39
2023/05/10 10:42:57;;;;;;;3.90;3.25;;;15.50;99.90;;;;;;5102228;28;20039;-38
2023/05/10 10:45:24;;;;;;;4.90;3.03;;;15.70;99.90;;;;;;5097117;28;20491;-38
2023/05/10 10:48:21;;;;;;;6.53;3.85;;;15.90;99.90;;;;;;5099586;28;20469;-38
2023/05/10 10:50:47;;;;;;;5.38;2.97;;;16.00;99.90;;;;;;5093750;28;20079;-37
2023/05/10 10:53:13;;;;;;;5.60;3.20;;;16.20;99.90;;;;;;5098431;28;20442;-41
2023/05/10 10:55:48;;;;;;;6.82;3.05;;;16.30;99.90;;;;;;5115186;28;20094;-39
2023/05/10 10:58:34;;;;;;;11.13;3.25;;;16.40;99.90;;;;;;5106810;28;20024;-40
2023/05/10 11:01:35;;;;;;;2.80;2.00;;;16.50;99.90;;;;;;5114731;28;20551;-41
2023/05/10 11:04:00;;;;;;;3.33;2.25;;;16.50;99.90;;;;;;5107379;27;20531;-39
2023/05/10 11:06:33;;;;;;;4.35;2.47;;;16.60;99.90;;;;;;5115201;28;20043;-37
2023/05/10 11:09:10;;;;;;;3.55;2.50;;;16.40;99.90;;;;;;5115159;28;20480;-39
2023/05/10 11:11:47;;;;;;;3.75;2.20;;;16.20;99.90;;;;;;5094803;28;20020;-38
2023/05/10 11:14:13;;;;;;;3.53;2.90;;;16.00;99.90;;;;;;5093875;28;20551;-38
2023/05/10 11:16:43;;;;;;;4.03;2.25;;;15.90;99.90;;;;;;5094435;28;20044;-41
2023/05/10 11:19:12;;;;;;;2.65;2.30;;;15.70;99.90;;;;;;5111337;27;20045;-37
2023/05/10 11:22:11;;;;;;;7.32;2.80;;;15.70;99.90;;;;;;5114692;28;20016;-38
2023/05/10 11:24:36;;;;;;;9.30;2.42;;;15.60;99.90;;;;;;5105532;28;20545;-39
2023/05/10 11:27:02;;;;;;;2.40;2.08;;;15.70;99.90;;;;;;5105040;28;20017;-39
2023/05/10 11:29:28;;;;;;;1.98;1.85;;;15.50;99.90;;;;;;5094402;28;20104;-40
2023/05/10 11:31:57;;;;;;;6.68;2.85;;;15.60;99.90;;;;;;5095797;28;20054;-38
2023/05/10 11:34:29;;;;;;;14.88;7.10;;;15.70;99.90;;;;;;5096015;28;20028;-42
2023/05/10 11:36:55;;;;;;;4.90;2.75;;;15.70;99.90;;;;;;5092694;28;20024;-42
2023/05/10 11:39:25;;;;;;;5.45;2.35;;;15.60;99.90;;;;;;5096766;28;20480;-41
2023/05/10 11:41:51;;;;;;;4.43;2.30;;;15.60;99.90;;;;;;5109122;28;20023;-41
2023/05/10 11:44:16;;;;;;;4.57;2.58;;;15.70;99.90;;;;;;5111901;28;20032;-41
2023/05/10 11:46:42;;;;;;;3.85;2.65;;;15.70;99.90;;;;;;5105913;28;20028;-41
2023/05/10 11:49:08;;;;;;;3.00;2.40;;;15.80;99.90;;;;;;5092495;28;20028;-40
2023/05/10 11:51:39;;;;;;;5.43;2.67;;;15.80;99.90;;;;;;5096887;28;20034;-39
2023/05/10 11:54:09;;;;;;;4.45;2.92;;;15.80;99.90;;;;;;5105665;28;20376;-40
2023/05/10 11:56:36;;;;;;;5.07;2.33;;;16.00;99.90;;;;;;5092311;28;20031;-38
2023/05/10 11:59:02;;;;;;;3.80;2.45;;;16.00;99.90;;;;;;5096132;28;20050;-39
2023/05/10 12:01:29;;;;;;;3.78;2.65;;;16.10;99.90;;;;;;5099552;28;20044;-41
2023/05/10 12:03:59;;;;;;;5.93;2.50;;;16.10;99.90;;;;;;5113802;28;20395;-39
2023/05/10 12:06:36;;;;;;;3.95;3.40;;;16.20;99.90;;;;;;5103387;28;20030;-40
2023/05/10 12:09:07;;;;;;;6.70;4.47;;;16.20;99.90;;;;;;5097351;28;20031;-41
2023/05/10 12:11:37;;;;;;;7.95;5.13;;;16.20;99.90;;;;;;5095208;28;20028;-40
2023/05/10 12:14:05;;;;;;;6.70;4.40;;;16.20;99.90;;;;;;5099785;28;20380;-40
2023/05/10 12:16:31;;;;;;;;;;;16.10;99.90;;;;;;5108635;28;20038;-41
2023/05/10 12:18:58;;;;;;;6.00;4.45;;;16.10;99.90;;;;;;5110296;28;19912;-39
2023/05/10 12:21:24;;;;;;;;;;;16.00;99.90;;;;;;5113538;28;20530;-39
2023/05/10 12:23:55;;;;;;;15.15;6.07;;;15.60;99.90;;;;;;5104599;27;19947;-41
2023/05/10 12:26:26;;;;;;;19.95;6.80;;;15.20;99.90;;;;;;5100045;28;20039;-41
2023/05/10 12:28:52;;;;;;;19.40;7.93;;;14.60;99.90;;;;;;5100679;28;20020;-39
2023/05/10 12:31:18;;;;;;;18.17;7.22;;;14.30;99.90;;;;;;5102285;28;20465;-38
2023/05/10 12:33:45;;;;;;;21.33;8.32;;;14.10;99.90;;;;;;5095330;28;20028;-40
2023/05/10 12:36:15;;;;;;;19.70;7.18;;;13.90;99.90;;;;;;5096523;28;20031;-40
2023/05/10 12:38:48;;;;;;;15.88;7.05;;;13.80;99.90;;;;;;5093644;28;20639;-37
2023/05/10 12:41:15;;;;;;;15.52;7.03;;;13.70;99.90;;;;;;5101946;28;20134;-38